• Join FlightAware (Why Join?)
  • Login
  • US Flag 
03:39AM EDT


 

Airport Tracker/Info


-or-


 

Live Flight TrackerFlight Track Log ✈ FFT917 ✈ 20-Jul-2013 ✈ KTTN - KMCO

Flight Track Log - Related Links

Times and Time Zones

All times are in EDT time to prevent confusion due to time zone crossing. See the FFT917 flight status page for this flight to view local times or setup timezone preferences in your user account.

Time Position Orientation Groundspeed Altitude Reporting Facility
EDT Latitude Longitude Course Direction KTS MPH feet Rate Location/Type
08:11AM 40.2540 -74.8340 192° South 155 178 1,700  Level FlightAware
08:11AM 40.2360 -74.8390 192° South 181 208 2,300 1,560 Climbing FlightAware
08:11AM 40.2110 -74.8470 194° South 208 239 3,000 1,560 Climbing FlightAware
08:12AM 40.1970 -74.8590 213° Southwest 216 249 3,500 1,500 Climbing FlightAware
08:12AM 40.1910 -74.8750 244° Southwest 231 266 3,800 2,100 Climbing FlightAware
08:12AM 40.1780 -74.9120 245° Southwest 254 292 4,900 2,760 Climbing FlightAware
08:13AM 40.1690 -74.9360 244° Southwest 253 291 5,900 2,760 Climbing FlightAware
08:13AM 40.1580 -74.9660 244° Southwest 254 292 6,900 1,320 Climbing FlightAware
08:14AM 40.1480 -74.9920 243° Southwest 255 293 7,100 120 Climbing FlightAware
08:14AM 40.1290 -75.0410 243° Southwest 255 293 7,100  Level FlightAware
08:15AM 40.1120 -75.0870 244° Southwest 256 295 7,100 1,740 Level FlightAware
08:16AM 40.0840 -75.1590 243° Southwest 261 300 9,500 1,800 Climbing FlightAware
08:16AM 40.0510 -75.2450 243° Southwest 268 308 10,100 360 Climbing FlightAware
08:17AM 40.0260 -75.3090 243° Southwest 268 308 10,100  Level FlightAware
08:18AM 39.9910 -75.3540 225° Southwest 270 311 10,100  Level FlightAware
08:18AM 39.9580 -75.3900 220° Southwest 272 313 10,100  Level FlightAware
08:19AM 39.9060 -75.4490 221° Southwest 306 352 10,100  Level FlightAware
08:20AM 39.8740 -75.5040 233° Southwest 299 344 10,100 720 Level FlightAware
08:21AM 39.8590 -75.6250 261° West 307 353 11,400 1,080 Climbing FlightAware
08:22AM 39.8480 -75.7170 261° West 305 351 12,100 1,860 Climbing FlightAware
08:26AM 39.6320 -76.1260 236° Southwest 360 414 20,700 2,040 Climbing FlightAware
08:27AM 39.5930 -76.1880 231° Southwest 355 409 22,200 1,620 Climbing FlightAware
08:27AM 39.5470 -76.2590 230° Southwest 371 427 23,000 900 Climbing FlightAware
08:28AM 39.4810 -76.3600 230° Southwest 388 447 23,600 1,020 Climbing FlightAware
08:29AM 39.4340 -76.4330 230° Southwest 399 459 24,500 1,320 Climbing FlightAware
08:29AM 39.3980 -76.4900 231° Southwest 406 467 25,200 1,380 Climbing FlightAware
08:30AM 39.3480 -76.5690 231° Southwest 413 475 26,200 1,380 Climbing FlightAware
08:31AM 39.3000 -76.6430 230° Southwest 419 482 27,100 1,080 Climbing FlightAware
08:31AM 39.2630 -76.7030 231° Southwest 425 489 27,700 1,080 Climbing FlightAware
08:32AM 39.2040 -76.7940 230° Southwest 432 497 28,700 1,380 Climbing FlightAware
08:33AM 39.1500 -76.8790 231° Southwest 434 499 29,700 1,800 Climbing FlightAware
08:34AM 39.0850 -76.9790 230° Southwest 426 490 31,200 1,560 Climbing FlightAware
08:34AM 39.0260 -77.0580 226° Southwest 434 499 31,900 1,140 Climbing FlightAware
08:35AM 38.9590 -77.1320 221° Southwest 436 502 32,900 1,380 Climbing FlightAware
08:36AM 38.8990 -77.1990 221° Southwest 432 497 33,900 900 Climbing FlightAware
08:36AM 38.8370 -77.2660 220° Southwest 427 491 34,100 60 Climbing FlightAware
08:37AM 38.7650 -77.3450 221° Southwest 428 493 34,000 -120 Descending FlightAware
08:38AM 38.7090 -77.4060 220° Southwest 429 494 34,000 60 Level FlightAware
08:39AM 38.6590 -77.4600 220° Southwest 429 494 34,100  Climbing FlightAware
08:40AM 38.5100 -77.6210 220° Southwest 430 495 34,000  Descending FlightAware
08:41AM 38.4400 -77.6970 220° Southwest 430 495 34,100 60 Climbing FlightAware
08:42AM 38.3560 -77.7880 220° Southwest 430 495 34,100  Level FlightAware
08:42AM 38.2870 -77.8610 220° Southwest 429 494 34,100 -120 Level FlightAware
08:43AM 38.2390 -77.9130 220° Southwest 429 494 34,000 -120 Descending FlightAware
08:44AM 38.1710 -77.9860 220° Southwest 428 493 34,000  Level FlightAware
08:44AM 38.1290 -78.0310 220° Southwest 429 494 34,000  Level FlightAware
08:45AM 38.0710 -78.0920 220° Southwest 430 495 34,000  Level FlightAware
08:46AM 37.9870 -78.1780 219° Southwest 432 497 34,000  Level FlightAware
08:47AM 37.9120 -78.2500 217° Southwest 433 498 34,100 60 Climbing FlightAware
08:47AM 37.8320 -78.3260 217° Southwest 435 501 34,100  Level FlightAware
08:48AM 37.7680 -78.3870 217° Southwest 437 503 34,100  Level FlightAware
08:49AM 37.7020 -78.4500 217° Southwest 438 504 34,100  Level FlightAware
08:49AM 37.6480 -78.5010 217° Southwest 439 505 34,100  Level FlightAware
08:50AM 37.5740 -78.5710 217° Southwest 438 504 34,100  Level FlightAware
08:51AM 37.5000 -78.6410 217° Southwest 437 503 34,100 -120 Level FlightAware
08:51AM 37.4260 -78.7100 217° Southwest 438 504 34,000 -120 Descending FlightAware
08:52AM 37.3590 -78.7730 217° Southwest 437 503 34,000  Level FlightAware
08:53AM 37.2750 -78.8510 216° Southwest 436 502 34,000  Level FlightAware
08:54AM 37.2140 -78.9090 217° Southwest 435 501 34,000  Level FlightAware
08:54AM 37.1670 -78.9520 216° Southwest 435 501 34,000  Level FlightAware
08:55AM 37.0650 -79.0470 217° Southwest 435 501 34,000 420 Level FlightAware
08:56AM 36.9970 -79.1100 217° Southwest 440 506 34,800 1,320 Climbing FlightAware
08:57AM 36.9070 -79.1920 216° Southwest 442 509 35,800 900 Climbing FlightAware
08:57AM 36.8380 -79.2570 217° Southwest 438 504 36,100 180 Climbing FlightAware
08:58AM 36.7740 -79.3150 216° Southwest 441 507 36,100 -120 Level FlightAware
08:59AM 36.7230 -79.3620 216° Southwest 443 510 36,000  Descending FlightAware
09:00AM 36.6200 -79.4560 216° Southwest 442 509 36,100 60 Climbing FlightAware
09:00AM 36.5470 -79.5230 216° Southwest 442 509 36,100  Level FlightAware
09:01AM 36.4840 -79.5800 216° Southwest 442 509 36,100  Level FlightAware
09:02AM 36.4320 -79.6270 216° Southwest 442 509 36,100 -60 Level FlightAware
09:03AM 36.3340 -79.7160 216° Southwest 439 505 36,000 -60 Descending FlightAware
09:04AM 36.2440 -79.7970 216° Southwest 440 506 36,000  Level FlightAware
09:04AM 36.1740 -79.8610 216° Southwest 442 509 36,000 60 Level FlightAware
09:05AM 36.1130 -79.9150 216° Southwest 443 510 36,100 60 Climbing FlightAware
09:06AM 36.0580 -79.9650 216° Southwest 443 510 36,100  Level FlightAware
09:06AM 35.9920 -80.0240 216° Southwest 443 510 36,100  Level FlightAware
09:07AM 35.8930 -80.0530 193° South 433 498 36,100 -120 Level FlightAware
09:08AM 35.8060 -80.0970 202° Southwest 433 498 36,000 -120 Descending FlightAware
09:08AM 35.7280 -80.1360 202° Southwest 435 501 36,000  Level FlightAware
09:09AM 35.6800 -80.1600 202° Southwest 436 502 36,000  Level FlightAware
09:10AM 35.6040 -80.1980 202° Southwest 436 502 36,000 60 Level FlightAware
09:10AM 35.5300 -80.2360 203° Southwest 449 517 36,100 60 Climbing FlightAware
09:11AM 35.4130 -80.2940 202° Southwest 451 519 36,100  Level FlightAware
09:12AM 35.3330 -80.3340 202° Southwest 452 520 36,100  Level FlightAware
09:12AM 35.2470 -80.3770 202° Southwest 455 524 36,100  Level FlightAware
09:13AM 35.1900 -80.4050 202° Southwest 455 524 36,100  Level FlightAware
09:14AM 35.0990 -80.4500 202° Southwest 456 525 36,100  Level FlightAware
09:15AM 34.9970 -80.5000 202° Southwest 458 527 36,100  Level FlightAware
09:16AM 34.8750 -80.5600 202° Southwest 458 527 36,100 -120 Level FlightAware
09:16AM 34.8120 -80.5910 202° Southwest 458 527 36,000  Descending FlightAware
09:17AM 34.7250 -80.6340 202° Southwest 458 527 36,100 60 Climbing FlightAware
09:18AM 34.6450 -80.6730 202° Southwest 457 526 36,100 -120 Level FlightAware
09:18AM 34.5640 -80.7120 202° Southwest 457 526 36,000 -120 Descending FlightAware
09:19AM 34.4780 -80.7540 202° Southwest 458 527 36,000  Level FlightAware
09:20AM 34.3910 -80.7970 202° Southwest 459 528 36,000 60 Level FlightAware
09:21AM 34.2850 -80.8400 199° South 458 527 36,100  Climbing FlightAware
09:21AM 34.2039 -80.8564 199° South 455 524 36,000 -60 Descending Jacksonville Center
09:22AM 34.0789 -80.8642 183° South 455 524 36,000  Level Jacksonville Center
09:23AM 33.9517 -80.8747 184° South 455 524 36,000  Level Jacksonville Center
09:24AM 33.8289 -80.8850 184° South 455 524 36,000  Level Jacksonville Center
09:25AM 33.7017 -80.8953 184° South 455 524 36,000  Level Jacksonville Center
09:26AM 33.5767 -80.9081 185° South 455 524 36,000  Level Jacksonville Center
09:27AM 33.4453 -80.9211 185° South 463 533 36,000  Level Jacksonville Center
09:28AM 33.3119 -80.9314 184° South 476 548 36,000  Level Jacksonville Center
09:29AM 33.1806 -80.9419 184° South 476 548 36,000  Level Jacksonville Center
09:30AM 33.0328 -80.9550 184° South 484 557 36,000  Level Jacksonville Center
09:31AM 32.9014 -80.9653 184° South 484 557 36,000 300 Level Jacksonville Center
09:37AM 32.1610 -81.0030 184° South 466 536 38,100 180 Climbing FlightAware
09:41AM 31.6690 -81.0220 182° South 466 536 38,100 -60 Level FlightAware
09:44AM 31.3300 -81.0350 182° South 466 536 37,800 -120 Descending FlightAware
09:44AM 31.2620 -81.0370 181° South 466 536 37,800  Level FlightAware
09:45AM 31.1490 -81.0420 182° South 466 536 37,800  Level FlightAware
09:46AM 31.0790 -81.0450 182° South 466 536 37,800  Level FlightAware
09:47AM 30.9910 -81.0480 182° South 466 536 37,800  Level FlightAware
09:47AM 30.9230 -81.0510 182° South 466 536 37,800  Level FlightAware
09:48AM 30.8140 -81.0560 182° South 466 536 37,800  Level FlightAware
09:49AM 30.7480 -81.0580 181° South 466 536 37,800  Level FlightAware
09:50AM 30.6840 -81.0610 182° South 466 536 37,800  Level FlightAware
09:51AM 30.5700 -81.0660 182° South 466 536 37,800 -2,280 Level FlightAware
09:51AM 30.3200 -81.0740 182° South 466 536 34,100 -2,940 Descending FlightAware
09:52AM 30.2300 -81.0780 182° South 462 532 34,000 -120 Descending FlightAware
09:53AM 30.1520 -81.0810 182° South 466 536 34,000 -1,140 Level FlightAware
09:53AM 30.1450 -81.0810 180° South 473 544 32,700 -1,860 Descending FlightAware
09:54AM 30.0210 -81.0830 181° South 480 552 32,100 -600 Descending FlightAware
09:54AM 29.9320 -81.0830 180° South 481 554 32,000 -120 Descending FlightAware
09:55AM 29.8900 -81.0830 180° South 481 554 32,000  Level FlightAware
09:55AM 29.8220 -81.0830 180° South 481 554 32,000 -1,620 Level FlightAware
09:56AM 29.6690 -81.0850 181° South 478 550 29,500 -1,320 Descending FlightAware
09:57AM 29.5560 -81.0850 180° South 478 550 29,500  Level FlightAware
09:58AM 29.4860 -81.0850 180° South 478 550 29,500  Level FlightAware
09:59AM 29.3940 -81.0850 180° South 478 550 29,500  Level FlightAware
09:59AM 29.3260 -81.0850 180° South 478 550 29,500 -10,800 Level FlightAware
10:00AM 29.2167 -81.0833 180° South 385 443 14,600 -9,360 Descending Orlando TRACON
10:01AM 29.1167 -81.0833 180° South 366 421 12,900 -1,320 Descending Orlando TRACON
10:02AM 29.0167 -81.0833 180° South 322 371 12,000 -960 Descending Orlando TRACON
10:03AM 28.9333 -81.0833 180° South 287 330 11,000 -1,320 Descending Orlando TRACON
10:04AM 28.8500 -81.0667 170° South 284 327 9,400 -1,320 Descending Orlando TRACON
10:05AM 28.7833 -81.0833 192° South 260 299 8,400 -1,080 Descending Orlando TRACON
10:06AM 28.7667 -81.1500 254° West 241 277 7,300 -1,020 Descending Orlando TRACON
10:11AM 28.5160 -81.2830 254° West 1,400 -1,020 Descending FlightAware
10:13AM 28.4690 -81.2830 180° South 132 152 800 -480 Descending FlightAware
10:20AM 28.4294 -81.3090 336° Northwest  Level Estimated